sensor_id;sensor_type;location;lat;lon;timestamp;P1;durP1;ratioP1;P2;durP2;ratioP2
52734;SDS011;38631;47.572;10.704;2023-09-08T00:00:39;7.78;;;5.60;;
52734;SDS011;38631;47.572;10.704;2023-09-08T00:03:05;7.90;;;5.63;;
52734;SDS011;38631;47.572;10.704;2023-09-08T00:05:31;8.20;;;5.88;;
52734;SDS011;38631;47.572;10.704;2023-09-08T00:07:56;6.63;;;5.55;;
52734;SDS011;38631;47.572;10.704;2023-09-08T00:10:22;6.30;;;5.15;;
52734;SDS011;38631;47.572;10.704;2023-09-08T00:12:47;8.15;;;6.28;;
52734;SDS011;38631;47.572;10.704;2023-09-08T00:15:12;6.55;;;5.88;;
52734;SDS011;38631;47.572;10.704;2023-09-08T00:17:38;7.03;;;6.00;;
52734;SDS011;38631;47.572;10.704;2023-09-08T00:20:06;9.10;;;5.80;;
52734;SDS011;38631;47.572;10.704;2023-09-08T00:22:35;7.35;;;6.20;;
52734;SDS011;38631;47.572;10.704;2023-09-08T00:25:03;10.48;;;6.70;;
52734;SDS011;38631;47.572;10.704;2023-09-08T00:27:29;7.15;;;5.85;;
52734;SDS011;38631;47.572;10.704;2023-09-08T00:29:55;9.25;;;6.00;;
52734;SDS011;38631;47.572;10.704;2023-09-08T00:32:20;8.80;;;6.43;;
52734;SDS011;38631;47.572;10.704;2023-09-08T00:34:46;7.78;;;5.78;;
52734;SDS011;38631;47.572;10.704;2023-09-08T00:37:11;7.88;;;5.45;;
52734;SDS011;38631;47.572;10.704;2023-09-08T00:39:37;8.95;;;6.00;;
52734;SDS011;38631;47.572;10.704;2023-09-08T00:42:03;7.85;;;5.90;;
52734;SDS011;38631;47.572;10.704;2023-09-08T00:44:28;7.18;;;6.22;;
52734;SDS011;38631;47.572;10.704;2023-09-08T00:46:53;6.82;;;6.13;;
52734;SDS011;38631;47.572;10.704;2023-09-08T00:49:19;7.65;;;5.95;;
52734;SDS011;38631;47.572;10.704;2023-09-08T00:51:45;9.35;;;6.80;;
52734;SDS011;38631;47.572;10.704;2023-09-08T00:54:11;7.65;;;6.32;;
52734;SDS011;38631;47.572;10.704;2023-09-08T00:56:37;6.55;;;5.82;;
52734;SDS011;38631;47.572;10.704;2023-09-08T00:59:03;8.88;;;6.00;;
52734;SDS011;38631;47.572;10.704;2023-09-08T01:01:30;7.53;;;5.70;;
52734;SDS011;38631;47.572;10.704;2023-09-08T01:03:56;7.50;;;5.50;;
52734;SDS011;38631;47.572;10.704;2023-09-08T01:06:21;6.63;;;5.93;;
52734;SDS011;38631;47.572;10.704;2023-09-08T01:08:48;7.57;;;6.43;;
52734;SDS011;38631;47.572;10.704;2023-09-08T01:11:15;9.18;;;6.18;;
52734;SDS011;38631;47.572;10.704;2023-09-08T01:13:40;7.50;;;6.25;;
52734;SDS011;38631;47.572;10.704;2023-09-08T01:16:08;6.85;;;6.15;;
52734;SDS011;38631;47.572;10.704;2023-09-08T01:18:33;7.80;;;6.25;;
52734;SDS011;38631;47.572;10.704;2023-09-08T01:26:37;9.30;;;6.80;;
52734;SDS011;38631;47.572;10.704;2023-09-08T01:31:31;7.50;;;6.50;;
52734;SDS011;38631;47.572;10.704;2023-09-08T01:33:58;6.93;;;6.20;;
52734;SDS011;38631;47.572;10.704;2023-09-08T01:36:25;7.72;;;6.75;;
52734;SDS011;38631;47.572;10.704;2023-09-08T01:38:51;7.78;;;6.18;;
52734;SDS011;38631;47.572;10.704;2023-09-08T01:41:16;7.72;;;6.55;;
52734;SDS011;38631;47.572;10.704;2023-09-08T01:43:41;7.68;;;6.60;;
52734;SDS011;38631;47.572;10.704;2023-09-08T01:46:07;7.93;;;6.38;;
52734;SDS011;38631;47.572;10.704;2023-09-08T01:48:32;8.85;;;6.57;;
52734;SDS011;38631;47.572;10.704;2023-09-08T01:50:57;7.47;;;6.65;;
52734;SDS011;38631;47.572;10.704;2023-09-08T01:53:23;6.82;;;6.13;;
52734;SDS011;38631;47.572;10.704;2023-09-08T01:55:48;7.15;;;6.40;;
52734;SDS011;38631;47.572;10.704;2023-09-08T01:58:13;8.70;;;7.00;;
52734;SDS011;38631;47.572;10.704;2023-09-08T02:00:39;9.13;;;7.38;;
52734;SDS011;38631;47.572;10.704;2023-09-08T02:03:04;7.30;;;6.53;;
52734;SDS011;38631;47.572;10.704;2023-09-08T02:05:29;8.55;;;6.78;;
52734;SDS011;38631;47.572;10.704;2023-09-08T02:07:55;9.18;;;6.60;;
52734;SDS011;38631;47.572;10.704;2023-09-08T02:10:21;7.97;;;6.05;;
52734;SDS011;38631;47.572;10.704;2023-09-08T02:12:47;8.57;;;6.40;;
52734;SDS011;38631;47.572;10.704;2023-09-08T02:15:12;7.82;;;6.72;;
52734;SDS011;38631;47.572;10.704;2023-09-08T02:17:37;6.85;;;6.15;;
52734;SDS011;38631;47.572;10.704;2023-09-08T02:20:03;9.55;;;7.35;;
52734;SDS011;38631;47.572;10.704;2023-09-08T02:22:28;8.25;;;6.55;;
52734;SDS011;38631;47.572;10.704;2023-09-08T02:24:54;7.18;;;6.47;;
52734;SDS011;38631;47.572;10.704;2023-09-08T02:27:21;7.93;;;6.13;;
52734;SDS011;38631;47.572;10.704;2023-09-08T02:29:47;8.52;;;6.85;;
52734;SDS011;38631;47.572;10.704;2023-09-08T02:32:12;7.30;;;6.22;;
52734;SDS011;38631;47.572;10.704;2023-09-08T02:34:39;7.63;;;6.82;;
52734;SDS011;38631;47.572;10.704;2023-09-08T02:37:04;7.22;;;6.53;;
52734;SDS011;38631;47.572;10.704;2023-09-08T02:39:30;8.77;;;6.47;;
52734;SDS011;38631;47.572;10.704;2023-09-08T02:41:57;7.45;;;6.20;;
52734;SDS011;38631;47.572;10.704;2023-09-08T02:44:22;7.35;;;6.65;;
52734;SDS011;38631;47.572;10.704;2023-09-08T02:46:48;7.55;;;6.68;;
52734;SDS011;38631;47.572;10.704;2023-09-08T02:49:13;7.53;;;6.38;;
52734;SDS011;38631;47.572;10.704;2023-09-08T02:51:38;9.20;;;6.68;;
52734;SDS011;38631;47.572;10.704;2023-09-08T02:54:04;8.73;;;6.68;;
52734;SDS011;38631;47.572;10.704;2023-09-08T02:56:29;7.57;;;6.63;;
52734;SDS011;38631;47.572;10.704;2023-09-08T02:58:55;8.77;;;6.15;;
52734;SDS011;38631;47.572;10.704;2023-09-08T03:01:20;7.35;;;6.65;;
52734;SDS011;38631;47.572;10.704;2023-09-08T03:03:46;8.90;;;7.25;;
52734;SDS011;38631;47.572;10.704;2023-09-08T03:06:13;9.32;;;6.60;;
52734;SDS011;38631;47.572;10.704;2023-09-08T03:08:39;8.18;;;6.28;;
52734;SDS011;38631;47.572;10.704;2023-09-08T03:11:05;7.57;;;6.55;;
52734;SDS011;38631;47.572;10.704;2023-09-08T03:13:31;7.40;;;6.60;;
52734;SDS011;38631;47.572;10.704;2023-09-08T03:16:01;7.40;;;6.65;;
52734;SDS011;38631;47.572;10.704;2023-09-08T03:18:32;7.72;;;6.90;;
52734;SDS011;38631;47.572;10.704;2023-09-08T03:20:58;8.15;;;6.65;;
52734;SDS011;38631;47.572;10.704;2023-09-08T03:23:25;7.68;;;6.18;;
52734;SDS011;38631;47.572;10.704;2023-09-08T03:25:50;10.27;;;6.13;;
52734;SDS011;38631;47.572;10.704;2023-09-08T03:28:16;7.70;;;6.75;;
52734;SDS011;38631;47.572;10.704;2023-09-08T03:30:41;6.75;;;6.05;;
52734;SDS011;38631;47.572;10.704;2023-09-08T03:33:07;9.77;;;6.57;;
52734;SDS011;38631;47.572;10.704;2023-09-08T03:35:32;10.40;;;6.80;;
52734;SDS011;38631;47.572;10.704;2023-09-08T03:37:57;9.40;;;6.93;;
52734;SDS011;38631;47.572;10.704;2023-09-08T03:40:23;7.05;;;6.15;;
52734;SDS011;38631;47.572;10.704;2023-09-08T03:42:49;8.10;;;6.35;;
52734;SDS011;38631;47.572;10.704;2023-09-08T03:45:14;9.02;;;6.40;;
52734;SDS011;38631;47.572;10.704;2023-09-08T03:47:40;7.20;;;6.15;;
52734;SDS011;38631;47.572;10.704;2023-09-08T03:50:05;7.40;;;6.50;;
52734;SDS011;38631;47.572;10.704;2023-09-08T03:52:31;6.88;;;6.00;;
52734;SDS011;38631;47.572;10.704;2023-09-08T03:54:56;8.07;;;6.75;;
52734;SDS011;38631;47.572;10.704;2023-09-08T03:57:22;7.88;;;6.43;;
52734;SDS011;38631;47.572;10.704;2023-09-08T03:59:47;7.80;;;6.78;;
52734;SDS011;38631;47.572;10.704;2023-09-08T04:02:12;7.35;;;6.53;;
52734;SDS011;38631;47.572;10.704;2023-09-08T04:04:38;9.77;;;7.35;;
52734;SDS011;38631;47.572;10.704;2023-09-08T04:07:03;9.05;;;6.45;;
52734;SDS011;38631;47.572;10.704;2023-09-08T04:09:29;8.45;;;7.07;;
52734;SDS011;38631;47.572;10.704;2023-09-08T04:11:54;10.68;;;6.65;;
52734;SDS011;38631;47.572;10.704;2023-09-08T04:14:20;8.20;;;7.05;;
52734;SDS011;38631;47.572;10.704;2023-09-08T04:16:45;9.82;;;7.65;;
52734;SDS011;38631;47.572;10.704;2023-09-08T04:19:11;8.32;;;6.78;;
52734;SDS011;38631;47.572;10.704;2023-09-08T04:21:36;8.98;;;7.47;;
52734;SDS011;38631;47.572;10.704;2023-09-08T04:24:02;8.07;;;7.10;;
52734;SDS011;38631;47.572;10.704;2023-09-08T04:26:27;8.25;;;6.68;;
52734;SDS011;38631;47.572;10.704;2023-09-08T04:28:53;7.07;;;6.38;;
52734;SDS011;38631;47.572;10.704;2023-09-08T04:31:18;7.88;;;6.93;;
52734;SDS011;38631;47.572;10.704;2023-09-08T04:33:44;8.05;;;7.00;;
52734;SDS011;38631;47.572;10.704;2023-09-08T04:36:10;8.02;;;7.00;;
52734;SDS011;38631;47.572;10.704;2023-09-08T04:38:36;8.15;;;6.85;;
52734;SDS011;38631;47.572;10.704;2023-09-08T04:41:01;7.43;;;6.57;;
52734;SDS011;38631;47.572;10.704;2023-09-08T04:43:26;8.85;;;7.18;;
52734;SDS011;38631;47.572;10.704;2023-09-08T04:45:52;8.13;;;7.10;;
52734;SDS011;38631;47.572;10.704;2023-09-08T04:48:17;10.23;;;6.50;;
52734;SDS011;38631;47.572;10.704;2023-09-08T04:50:43;8.82;;;7.28;;
52734;SDS011;38631;47.572;10.704;2023-09-08T04:53:08;8.45;;;7.55;;
52734;SDS011;38631;47.572;10.704;2023-09-08T04:55:33;9.93;;;7.05;;
52734;SDS011;38631;47.572;10.704;2023-09-08T04:57:59;9.05;;;7.38;;
52734;SDS011;38631;47.572;10.704;2023-09-08T05:00:24;8.13;;;7.05;;
52734;SDS011;38631;47.572;10.704;2023-09-08T05:02:49;7.68;;;6.90;;
52734;SDS011;38631;47.572;10.704;2023-09-08T05:05:15;9.40;;;7.25;;
52734;SDS011;38631;47.572;10.704;2023-09-08T05:07:40;9.13;;;6.88;;
52734;SDS011;38631;47.572;10.704;2023-09-08T05:10:06;8.07;;;7.28;;
52734;SDS011;38631;47.572;10.704;2023-09-08T05:12:31;7.35;;;6.38;;
52734;SDS011;38631;47.572;10.704;2023-09-08T05:14:57;8.65;;;7.22;;
52734;SDS011;38631;47.572;10.704;2023-09-08T05:17:30;8.00;;;7.18;;
52734;SDS011;38631;47.572;10.704;2023-09-08T05:19:56;7.32;;;6.50;;
52734;SDS011;38631;47.572;10.704;2023-09-08T05:22:21;9.48;;;7.57;;
52734;SDS011;38631;47.572;10.704;2023-09-08T05:24:46;7.85;;;6.82;;
52734;SDS011;38631;47.572;10.704;2023-09-08T05:27:12;10.73;;;7.68;;
52734;SDS011;38631;47.572;10.704;2023-09-08T05:29:37;8.60;;;7.70;;
52734;SDS011;38631;47.572;10.704;2023-09-08T05:32:02;7.78;;;6.95;;
52734;SDS011;38631;47.572;10.704;2023-09-08T05:34:28;7.75;;;6.97;;
52734;SDS011;38631;47.572;10.704;2023-09-08T05:36:53;8.88;;;7.35;;
52734;SDS011;38631;47.572;10.704;2023-09-08T05:39:19;8.20;;;7.40;;
52734;SDS011;38631;47.572;10.704;2023-09-08T05:41:44;8.38;;;6.97;;
52734;SDS011;38631;47.572;10.704;2023-09-08T05:44:10;7.88;;;7.07;;
52734;SDS011;38631;47.572;10.704;2023-09-08T05:46:36;8.30;;;7.45;;
52734;SDS011;38631;47.572;10.704;2023-09-08T05:49:01;9.38;;;8.18;;
52734;SDS011;38631;47.572;10.704;2023-09-08T05:51:26;11.02;;;8.13;;
52734;SDS011;38631;47.572;10.704;2023-09-08T05:53:52;9.88;;;7.93;;
52734;SDS011;38631;47.572;10.704;2023-09-08T05:56:18;9.48;;;8.48;;
52734;SDS011;38631;47.572;10.704;2023-09-08T05:58:44;12.73;;;8.65;;
52734;SDS011;38631;47.572;10.704;2023-09-08T06:01:09;10.05;;;8.48;;
52734;SDS011;38631;47.572;10.704;2023-09-08T06:03:35;10.35;;;8.60;;
52734;SDS011;38631;47.572;10.704;2023-09-08T06:06:00;9.90;;;8.00;;
52734;SDS011;38631;47.572;10.704;2023-09-08T06:08:25;9.73;;;7.75;;
52734;SDS011;38631;47.572;10.704;2023-09-08T06:10:51;9.80;;;8.02;;
52734;SDS011;38631;47.572;10.704;2023-09-08T06:13:16;8.43;;;7.50;;
52734;SDS011;38631;47.572;10.704;2023-09-08T06:15:41;10.07;;;8.73;;
52734;SDS011;38631;47.572;10.704;2023-09-08T06:18:08;10.45;;;7.32;;
52734;SDS011;38631;47.572;10.704;2023-09-08T06:20:33;8.73;;;7.78;;
52734;SDS011;38631;47.572;10.704;2023-09-08T06:22:58;11.30;;;8.88;;
52734;SDS011;38631;47.572;10.704;2023-09-08T06:25:24;10.43;;;8.65;;
52734;SDS011;38631;47.572;10.704;2023-09-08T06:27:49;9.38;;;8.00;;
52734;SDS011;38631;47.572;10.704;2023-09-08T06:30:14;10.25;;;7.88;;
52734;SDS011;38631;47.572;10.704;2023-09-08T06:32:41;10.70;;;8.65;;
52734;SDS011;38631;47.572;10.704;2023-09-08T06:35:07;9.60;;;8.20;;
52734;SDS011;38631;47.572;10.704;2023-09-08T06:37:36;11.40;;;8.00;;
52734;SDS011;38631;47.572;10.704;2023-09-08T06:40:03;9.13;;;8.13;;
52734;SDS011;38631;47.572;10.704;2023-09-08T06:42:29;13.88;;;8.68;;
52734;SDS011;38631;47.572;10.704;2023-09-08T06:44:54;9.75;;;8.43;;
52734;SDS011;38631;47.572;10.704;2023-09-08T06:47:20;10.13;;;8.38;;
52734;SDS011;38631;47.572;10.704;2023-09-08T06:49:45;10.52;;;8.10;;
52734;SDS011;38631;47.572;10.704;2023-09-08T06:52:11;8.55;;;7.65;;
52734;SDS011;38631;47.572;10.704;2023-09-08T06:54:37;10.68;;;8.20;;
52734;SDS011;38631;47.572;10.704;2023-09-08T06:57:02;8.00;;;6.85;;
52734;SDS011;38631;47.572;10.704;2023-09-08T06:59:28;9.13;;;7.93;;
52734;SDS011;38631;47.572;10.704;2023-09-08T07:01:53;10.35;;;7.63;;
52734;SDS011;38631;47.572;10.704;2023-09-08T07:04:18;8.38;;;7.28;;
52734;SDS011;38631;47.572;10.704;2023-09-08T07:06:44;8.90;;;7.53;;
52734;SDS011;38631;47.572;10.704;2023-09-08T07:09:11;12.55;;;7.35;;
52734;SDS011;38631;47.572;10.704;2023-09-08T07:11:36;9.07;;;7.28;;
52734;SDS011;38631;47.572;10.704;2023-09-08T07:14:02;8.10;;;7.22;;
52734;SDS011;38631;47.572;10.704;2023-09-08T07:16:28;8.50;;;6.93;;
52734;SDS011;38631;47.572;10.704;2023-09-08T07:18:53;8.65;;;6.85;;
52734;SDS011;38631;47.572;10.704;2023-09-08T07:21:19;8.68;;;7.47;;
52734;SDS011;38631;47.572;10.704;2023-09-08T07:23:44;7.07;;;6.07;;
52734;SDS011;38631;47.572;10.704;2023-09-08T07:26:09;9.10;;;7.25;;
52734;SDS011;38631;47.572;10.704;2023-09-08T07:28:35;13.05;;;7.70;;
52734;SDS011;38631;47.572;10.704;2023-09-08T07:31:01;7.80;;;7.00;;
52734;SDS011;38631;47.572;10.704;2023-09-08T07:33:27;8.25;;;6.95;;
52734;SDS011;38631;47.572;10.704;2023-09-08T07:35:53;7.82;;;7.05;;
52734;SDS011;38631;47.572;10.704;2023-09-08T07:38:18;7.65;;;6.65;;
52734;SDS011;38631;47.572;10.704;2023-09-08T07:40:44;8.52;;;6.88;;
52734;SDS011;38631;47.572;10.704;2023-09-08T07:43:09;8.13;;;6.88;;
52734;SDS011;38631;47.572;10.704;2023-09-08T07:45:35;9.07;;;6.78;;
52734;SDS011;38631;47.572;10.704;2023-09-08T07:48:00;9.32;;;6.45;;
52734;SDS011;38631;47.572;10.704;2023-09-08T07:50:26;8.00;;;6.13;;
52734;SDS011;38631;47.572;10.704;2023-09-08T07:52:54;8.68;;;6.57;;
52734;SDS011;38631;47.572;10.704;2023-09-08T07:55:20;7.38;;;6.18;;
52734;SDS011;38631;47.572;10.704;2023-09-08T07:57:52;6.95;;;6.25;;
52734;SDS011;38631;47.572;10.704;2023-09-08T08:00:18;8.65;;;6.60;;
52734;SDS011;38631;47.572;10.704;2023-09-08T08:02:51;8.02;;;6.68;;
52734;SDS011;38631;47.572;10.704;2023-09-08T08:05:18;7.07;;;6.38;;
52734;SDS011;38631;47.572;10.704;2023-09-08T08:07:43;9.82;;;7.05;;
52734;SDS011;38631;47.572;10.704;2023-09-08T08:10:10;6.95;;;6.25;;
52734;SDS011;38631;47.572;10.704;2023-09-08T08:12:37;7.10;;;6.35;;
52734;SDS011;38631;47.572;10.704;2023-09-08T08:15:03;8.98;;;7.32;;
52734;SDS011;38631;47.572;10.704;2023-09-08T08:17:29;7.43;;;6.45;;
52734;SDS011;38631;47.572;10.704;2023-09-08T08:19:56;7.10;;;6.40;;
52734;SDS011;38631;47.572;10.704;2023-09-08T08:22:23;8.50;;;5.82;;
52734;SDS011;38631;47.572;10.704;2023-09-08T08:24:49;8.18;;;6.25;;
52734;SDS011;38631;47.572;10.704;2023-09-08T08:27:17;8.05;;;6.22;;
52734;SDS011;38631;47.572;10.704;2023-09-08T08:29:43;8.45;;;7.32;;
52734;SDS011;38631;47.572;10.704;2023-09-08T08:32:08;7.43;;;6.50;;
52734;SDS011;38631;47.572;10.704;2023-09-08T08:34:34;8.38;;;6.93;;
52734;SDS011;38631;47.572;10.704;2023-09-08T08:36:59;7.93;;;6.05;;
52734;SDS011;38631;47.572;10.704;2023-09-08T08:39:25;7.90;;;6.50;;
52734;SDS011;38631;47.572;10.704;2023-09-08T08:41:50;7.00;;;6.30;;
52734;SDS011;38631;47.572;10.704;2023-09-08T08:44:16;7.15;;;6.45;;
52734;SDS011;38631;47.572;10.704;2023-09-08T08:46:43;9.20;;;7.47;;
52734;SDS011;38631;47.572;10.704;2023-09-08T08:49:11;8.32;;;7.13;;
52734;SDS011;38631;47.572;10.704;2023-09-08T08:51:39;8.35;;;7.28;;
52734;SDS011;38631;47.572;10.704;2023-09-08T08:54:09;7.43;;;6.72;;
52734;SDS011;38631;47.572;10.704;2023-09-08T08:56:35;8.98;;;7.13;;
52734;SDS011;38631;47.572;10.704;2023-09-08T08:59:01;7.85;;;7.00;;
52734;SDS011;38631;47.572;10.704;2023-09-08T09:01:28;7.95;;;7.07;;
52734;SDS011;38631;47.572;10.704;2023-09-08T09:03:54;8.98;;;6.40;;
52734;SDS011;38631;47.572;10.704;2023-09-08T09:06:20;8.93;;;6.90;;
52734;SDS011;38631;47.572;10.704;2023-09-08T09:08:45;7.78;;;6.95;;
52734;SDS011;38631;47.572;10.704;2023-09-08T09:11:12;7.70;;;6.90;;
52734;SDS011;38631;47.572;10.704;2023-09-08T09:13:37;8.85;;;7.95;;
52734;SDS011;38631;47.572;10.704;2023-09-08T09:16:03;9.13;;;7.05;;
52734;SDS011;38631;47.572;10.704;2023-09-08T09:18:29;9.23;;;7.72;;
52734;SDS011;38631;47.572;10.704;2023-09-08T09:20:59;7.65;;;6.78;;
52734;SDS011;38631;47.572;10.704;2023-09-08T09:25:54;9.07;;;6.90;;
52734;SDS011;38631;47.572;10.704;2023-09-08T09:28:19;9.45;;;7.20;;
52734;SDS011;38631;47.572;10.704;2023-09-08T09:30:46;8.98;;;7.15;;
52734;SDS011;38631;47.572;10.704;2023-09-08T09:33:13;8.70;;;7.40;;
52734;SDS011;38631;47.572;10.704;2023-09-08T09:35:39;9.13;;;6.50;;
52734;SDS011;38631;47.572;10.704;2023-09-08T09:38:06;7.57;;;6.60;;
52734;SDS011;38631;47.572;10.704;2023-09-08T09:40:33;9.43;;;7.00;;
52734;SDS011;38631;47.572;10.704;2023-09-08T09:42:58;7.70;;;6.80;;
52734;SDS011;38631;47.572;10.704;2023-09-08T09:45:26;8.90;;;7.35;;
52734;SDS011;38631;47.572;10.704;2023-09-08T09:47:52;7.77;;;6.57;;
52734;SDS011;38631;47.572;10.704;2023-09-08T09:50:34;8.25;;;7.13;;
52734;SDS011;38631;47.572;10.704;2023-09-08T09:53:01;7.88;;;6.68;;
52734;SDS011;38631;47.572;10.704;2023-09-08T09:55:32;8.30;;;7.00;;
52734;SDS011;38631;47.572;10.704;2023-09-08T09:57:59;7.95;;;7.05;;
52734;SDS011;38631;47.572;10.704;2023-09-08T10:00:27;8.73;;;6.80;;
52734;SDS011;38631;47.572;10.704;2023-09-08T10:02:53;7.22;;;6.40;;
52734;SDS011;38631;47.572;10.704;2023-09-08T10:05:20;7.20;;;6.50;;
52734;SDS011;38631;47.572;10.704;2023-09-08T10:07:49;10.02;;;7.25;;
52734;SDS011;38631;47.572;10.704;2023-09-08T10:10:15;8.68;;;7.10;;
52734;SDS011;38631;47.572;10.704;2023-09-08T10:12:45;7.97;;;7.10;;
52734;SDS011;38631;47.572;10.704;2023-09-08T10:15:17;7.82;;;7.03;;
52734;SDS011;38631;47.572;10.704;2023-09-08T10:17:45;7.73;;;6.87;;
52734;SDS011;38631;47.572;10.704;2023-09-08T10:20:16;7.40;;;6.68;;
52734;SDS011;38631;47.572;10.704;2023-09-08T10:22:42;13.73;;;7.45;;
52734;SDS011;38631;47.572;10.704;2023-09-08T10:25:08;10.18;;;7.78;;
52734;SDS011;38631;47.572;10.704;2023-09-08T10:27:35;9.82;;;7.60;;
52734;SDS011;38631;47.572;10.704;2023-09-08T10:30:04;10.55;;;7.00;;
52734;SDS011;38631;47.572;10.704;2023-09-08T10:32:34;7.47;;;6.63;;
52734;SDS011;38631;47.572;10.704;2023-09-08T10:35:02;9.35;;;7.20;;
52734;SDS011;38631;47.572;10.704;2023-09-08T10:37:28;13.60;;;7.32;;
52734;SDS011;38631;47.572;10.704;2023-09-08T10:40:19;7.95;;;6.95;;
52734;SDS011;38631;47.572;10.704;2023-09-08T10:45:46;8.20;;;7.38;;
52734;SDS011;38631;47.572;10.704;2023-09-08T10:48:12;8.63;;;7.30;;
52734;SDS011;38631;47.572;10.704;2023-09-08T10:50:40;7.68;;;6.90;;
52734;SDS011;38631;47.572;10.704;2023-09-08T10:53:12;8.77;;;7.78;;
52734;SDS011;38631;47.572;10.704;2023-09-08T10:58:30;9.07;;;7.60;;
52734;SDS011;38631;47.572;10.704;2023-09-08T11:00:56;10.85;;;7.85;;
52734;SDS011;38631;47.572;10.704;2023-09-08T11:03:48;7.85;;;6.32;;
52734;SDS011;38631;47.572;10.704;2023-09-08T11:06:17;9.40;;;7.38;;
52734;SDS011;38631;47.572;10.704;2023-09-08T11:08:44;9.82;;;7.45;;
52734;SDS011;38631;47.572;10.704;2023-09-08T11:11:13;8.85;;;7.95;;
52734;SDS011;38631;47.572;10.704;2023-09-08T11:13:40;11.00;;;8.02;;
52734;SDS011;38631;47.572;10.704;2023-09-08T11:16:06;10.60;;;7.80;;
52734;SDS011;38631;47.572;10.704;2023-09-08T11:18:32;9.38;;;7.15;;
52734;SDS011;38631;47.572;10.704;2023-09-08T11:21:00;8.20;;;7.35;;
52734;SDS011;38631;47.572;10.704;2023-09-08T11:23:27;8.98;;;7.57;;
52734;SDS011;38631;47.572;10.704;2023-09-08T11:25:56;7.75;;;6.95;;
52734;SDS011;38631;47.572;10.704;2023-09-08T11:28:22;8.80;;;7.63;;
52734;SDS011;38631;47.572;10.704;2023-09-08T11:30:48;9.20;;;7.50;;
52734;SDS011;38631;47.572;10.704;2023-09-08T11:33:14;8.40;;;7.57;;
52734;SDS011;38631;47.572;10.704;2023-09-08T11:35:41;9.32;;;7.80;;
52734;SDS011;38631;47.572;10.704;2023-09-08T11:38:09;10.50;;;7.68;;
52734;SDS011;38631;47.572;10.704;2023-09-08T11:40:36;9.13;;;7.45;;
52734;SDS011;38631;47.572;10.704;2023-09-08T11:43:02;8.57;;;6.72;;
52734;SDS011;38631;47.572;10.704;2023-09-08T11:45:29;9.13;;;7.05;;
52734;SDS011;38631;47.572;10.704;2023-09-08T11:47:55;9.20;;;7.47;;
52734;SDS011;38631;47.572;10.704;2023-09-08T11:50:21;9.02;;;7.18;;
52734;SDS011;38631;47.572;10.704;2023-09-08T11:52:49;10.13;;;7.13;;
52734;SDS011;38631;47.572;10.704;2023-09-08T11:55:15;8.48;;;7.45;;
52734;SDS011;38631;47.572;10.704;2023-09-08T11:57:43;8.43;;;7.18;;
52734;SDS011;38631;47.572;10.704;2023-09-08T12:00:11;8.10;;;6.75;;
52734;SDS011;38631;47.572;10.704;2023-09-08T12:02:41;8.95;;;7.45;;
52734;SDS011;38631;47.572;10.704;2023-09-08T12:05:28;9.50;;;7.38;;
52734;SDS011;38631;47.572;10.704;2023-09-08T12:07:54;7.82;;;7.03;;
52734;SDS011;38631;47.572;10.704;2023-09-08T12:10:26;8.57;;;7.22;;
52734;SDS011;38631;47.572;10.704;2023-09-08T12:12:52;8.77;;;7.10;;
52734;SDS011;38631;47.572;10.704;2023-09-08T12:17:58;9.25;;;7.05;;
52734;SDS011;38631;47.572;10.704;2023-09-08T12:20:24;8.13;;;6.85;;
52734;SDS011;38631;47.572;10.704;2023-09-08T12:22:50;9.43;;;7.28;;
52734;SDS011;38631;47.572;10.704;2023-09-08T12:25:16;8.98;;;6.97;;
52734;SDS011;38631;47.572;10.704;2023-09-08T12:27:42;8.35;;;6.65;;
52734;SDS011;38631;47.572;10.704;2023-09-08T12:30:07;7.88;;;7.05;;
52734;SDS011;38631;47.572;10.704;2023-09-08T12:35:51;9.18;;;7.25;;
52734;SDS011;38631;47.572;10.704;2023-09-08T12:38:18;8.90;;;6.93;;
52734;SDS011;38631;47.572;10.704;2023-09-08T12:40:49;8.68;;;7.10;;
52734;SDS011;38631;47.572;10.704;2023-09-08T12:43:15;7.45;;;6.50;;
52734;SDS011;38631;47.572;10.704;2023-09-08T12:45:40;8.25;;;6.47;;
52734;SDS011;38631;47.572;10.704;2023-09-08T12:48:06;7.55;;;6.85;;
52734;SDS011;38631;47.572;10.704;2023-09-08T12:50:32;7.97;;;6.43;;
52734;SDS011;38631;47.572;10.704;2023-09-08T12:52:57;9.30;;;7.03;;
52734;SDS011;38631;47.572;10.704;2023-09-08T12:55:23;7.30;;;6.47;;
52734;SDS011;38631;47.572;10.704;2023-09-08T12:57:49;8.20;;;7.05;;
52734;SDS011;38631;47.572;10.704;2023-09-08T13:00:19;7.30;;;6.50;;
52734;SDS011;38631;47.572;10.704;2023-09-08T13:02:45;8.65;;;6.55;;
52734;SDS011;38631;47.572;10.704;2023-09-08T13:05:10;7.63;;;6.88;;
52734;SDS011;38631;47.572;10.704;2023-09-08T13:07:36;7.45;;;6.28;;
52734;SDS011;38631;47.572;10.704;2023-09-08T13:10:01;9.00;;;7.07;;
52734;SDS011;38631;47.572;10.704;2023-09-08T13:12:26;8.13;;;7.00;;
52734;SDS011;38631;47.572;10.704;2023-09-08T13:14:52;7.50;;;6.63;;
52734;SDS011;38631;47.572;10.704;2023-09-08T13:17:17;6.93;;;6.22;;
52734;SDS011;38631;47.572;10.704;2023-09-08T13:19:55;8.63;;;6.63;;
52734;SDS011;38631;47.572;10.704;2023-09-08T13:22:20;7.25;;;6.53;;
52734;SDS011;38631;47.572;10.704;2023-09-08T13:24:46;8.93;;;6.70;;
52734;SDS011;38631;47.572;10.704;2023-09-08T13:27:11;8.95;;;6.55;;
52734;SDS011;38631;47.572;10.704;2023-09-08T13:29:36;10.52;;;6.90;;
52734;SDS011;38631;47.572;10.704;2023-09-08T13:32:03;9.35;;;6.25;;
52734;SDS011;38631;47.572;10.704;2023-09-08T13:34:29;9.77;;;7.25;;
52734;SDS011;38631;47.572;10.704;2023-09-08T13:36:55;7.88;;;6.80;;
52734;SDS011;38631;47.572;10.704;2023-09-08T13:39:20;8.98;;;7.10;;
52734;SDS011;38631;47.572;10.704;2023-09-08T13:41:52;7.07;;;6.38;;
52734;SDS011;38631;47.572;10.704;2023-09-08T13:44:19;8.55;;;7.13;;
52734;SDS011;38631;47.572;10.704;2023-09-08T13:46:46;7.57;;;6.78;;
52734;SDS011;38631;47.572;10.704;2023-09-08T13:49:13;8.93;;;7.28;;
52734;SDS011;38631;47.572;10.704;2023-09-08T13:51:39;9.52;;;6.30;;
52734;SDS011;38631;47.572;10.704;2023-09-08T13:54:05;8.95;;;6.35;;
52734;SDS011;38631;47.572;10.704;2023-09-08T13:56:30;8.73;;;6.93;;
52734;SDS011;38631;47.572;10.704;2023-09-08T13:58:56;7.80;;;6.82;;
52734;SDS011;38631;47.572;10.704;2023-09-08T14:01:21;8.05;;;6.97;;
52734;SDS011;38631;47.572;10.704;2023-09-08T14:03:46;8.40;;;7.13;;
52734;SDS011;38631;47.572;10.704;2023-09-08T14:06:16;8.98;;;6.65;;
52734;SDS011;38631;47.572;10.704;2023-09-08T14:08:42;10.13;;;7.07;;
52734;SDS011;38631;47.572;10.704;2023-09-08T14:11:07;7.30;;;6.47;;
52734;SDS011;38631;47.572;10.704;2023-09-08T14:13:33;8.95;;;7.25;;
52734;SDS011;38631;47.572;10.704;2023-09-08T14:15:58;8.13;;;6.93;;
52734;SDS011;38631;47.572;10.704;2023-09-08T14:18:24;7.57;;;6.78;;
52734;SDS011;38631;47.572;10.704;2023-09-08T14:20:49;8.98;;;7.50;;
52734;SDS011;38631;47.572;10.704;2023-09-08T14:23:14;6.95;;;5.88;;
52734;SDS011;38631;47.572;10.704;2023-09-08T14:25:40;7.65;;;6.95;;
52734;SDS011;38631;47.572;10.704;2023-09-08T14:28:06;8.45;;;7.53;;
52734;SDS011;38631;47.572;10.704;2023-09-08T14:30:31;7.82;;;6.43;;
52734;SDS011;38631;47.572;10.704;2023-09-08T14:32:56;9.57;;;7.10;;
52734;SDS011;38631;47.572;10.704;2023-09-08T14:35:22;8.05;;;7.25;;
52734;SDS011;38631;47.572;10.704;2023-09-08T14:37:47;12.27;;;7.68;;
52734;SDS011;38631;47.572;10.704;2023-09-08T14:40:14;7.55;;;6.43;;
52734;SDS011;38631;47.572;10.704;2023-09-08T14:42:43;8.70;;;6.82;;
52734;SDS011;38631;47.572;10.704;2023-09-08T14:45:09;9.95;;;6.43;;
52734;SDS011;38631;47.572;10.704;2023-09-08T14:47:34;7.70;;;6.68;;
52734;SDS011;38631;47.572;10.704;2023-09-08T14:50:00;9.15;;;7.43;;